sensor_id;sensor_type;location;lat;lon;timestamp;P1;durP1;ratioP1;P2;durP2;ratioP2
74945;SDS011;63509;45.250;38.102;2024-03-02T00:01:15;15.15;;;6.78;;
74945;SDS011;63509;45.250;38.102;2024-03-02T00:03:42;15.65;;;6.85;;
74945;SDS011;63509;45.250;38.102;2024-03-02T00:06:08;18.85;;;5.80;;
74945;SDS011;63509;45.250;38.102;2024-03-02T00:08:35;15.73;;;6.63;;
74945;SDS011;63509;45.250;38.102;2024-03-02T00:11:02;14.57;;;5.68;;
74945;SDS011;63509;45.250;38.102;2024-03-02T00:13:29;12.95;;;6.60;;
74945;SDS011;63509;45.250;38.102;2024-03-02T00:15:56;16.20;;;6.65;;
74945;SDS011;63509;45.250;38.102;2024-03-02T00:18:25;19.70;;;7.28;;
74945;SDS011;63509;45.250;38.102;2024-03-02T00:20:56;15.85;;;6.55;;
74945;SDS011;63509;45.250;38.102;2024-03-02T00:23:23;8.38;;;5.60;;
74945;SDS011;63509;45.250;38.102;2024-03-02T00:25:55;12.57;;;5.43;;
74945;SDS011;63509;45.250;38.102;2024-03-02T00:30:51;11.02;;;4.78;;
74945;SDS011;63509;45.250;38.102;2024-03-02T00:33:30;8.77;;;5.60;;
74945;SDS011;63509;45.250;38.102;2024-03-02T00:36:22;14.30;;;5.88;;
74945;SDS011;63509;45.250;38.102;2024-03-02T00:38:50;19.92;;;6.82;;
74945;SDS011;63509;45.250;38.102;2024-03-02T00:41:26;13.02;;;4.85;;
74945;SDS011;63509;45.250;38.102;2024-03-02T00:44:01;18.45;;;5.60;;
74945;SDS011;63509;45.250;38.102;2024-03-02T00:46:38;9.98;;;4.65;;
74945;SDS011;63509;45.250;38.102;2024-03-02T00:49:11;14.23;;;5.03;;
74945;SDS011;63509;45.250;38.102;2024-03-02T00:51:46;17.30;;;5.60;;
74945;SDS011;63509;45.250;38.102;2024-03-02T00:54:15;14.30;;;5.75;;
74945;SDS011;63509;45.250;38.102;2024-03-02T00:56:46;14.63;;;5.38;;
74945;SDS011;63509;45.250;38.102;2024-03-02T00:59:14;10.02;;;6.07;;
74945;SDS011;63509;45.250;38.102;2024-03-02T01:01:42;13.43;;;5.50;;
74945;SDS011;63509;45.250;38.102;2024-03-02T01:04:15;11.20;;;5.13;;
74945;SDS011;63509;45.250;38.102;2024-03-02T01:06:44;14.30;;;5.35;;
74945;SDS011;63509;45.250;38.102;2024-03-02T01:09:11;15.40;;;6.45;;
74945;SDS011;63509;45.250;38.102;2024-03-02T01:11:37;11.05;;;4.93;;
74945;SDS011;63509;45.250;38.102;2024-03-02T01:14:04;14.75;;;7.28;;
74945;SDS011;63509;45.250;38.102;2024-03-02T01:16:33;14.40;;;5.18;;
74945;SDS011;63509;45.250;38.102;2024-03-02T01:18:59;15.48;;;6.47;;
74945;SDS011;63509;45.250;38.102;2024-03-02T01:21:25;12.32;;;5.35;;
74945;SDS011;63509;45.250;38.102;2024-03-02T01:23:52;13.80;;;5.63;;
74945;SDS011;63509;45.250;38.102;2024-03-02T01:26:18;9.45;;;4.72;;
74945;SDS011;63509;45.250;38.102;2024-03-02T01:28:44;10.73;;;5.60;;
74945;SDS011;63509;45.250;38.102;2024-03-02T01:31:10;23.52;;;5.53;;
74945;SDS011;63509;45.250;38.102;2024-03-02T01:33:36;8.52;;;4.78;;
74945;SDS011;63509;45.250;38.102;2024-03-02T01:36:02;10.98;;;5.68;;
74945;SDS011;63509;45.250;38.102;2024-03-02T01:38:29;15.20;;;5.88;;
74945;SDS011;63509;45.250;38.102;2024-03-02T01:40:56;12.98;;;6.03;;
74945;SDS011;63509;45.250;38.102;2024-03-02T01:43:22;12.52;;;5.90;;
74945;SDS011;63509;45.250;38.102;2024-03-02T01:45:48;15.38;;;6.47;;
74945;SDS011;63509;45.250;38.102;2024-03-02T01:48:14;13.27;;;5.45;;
74945;SDS011;63509;45.250;38.102;2024-03-02T01:50:40;9.82;;;5.80;;
74945;SDS011;63509;45.250;38.102;2024-03-02T01:53:06;11.70;;;5.07;;
74945;SDS011;63509;45.250;38.102;2024-03-02T01:55:34;17.92;;;6.93;;
74945;SDS011;63509;45.250;38.102;2024-03-02T01:58:00;13.77;;;6.40;;
74945;SDS011;63509;45.250;38.102;2024-03-02T02:00:26;24.45;;;7.28;;
74945;SDS011;63509;45.250;38.102;2024-03-02T02:02:53;12.05;;;6.25;;
74945;SDS011;63509;45.250;38.102;2024-03-02T02:05:20;16.38;;;8.38;;
74945;SDS011;63509;45.250;38.102;2024-03-02T02:07:46;14.15;;;6.50;;
74945;SDS011;63509;45.250;38.102;2024-03-02T02:10:13;11.20;;;5.90;;
74945;SDS011;63509;45.250;38.102;2024-03-02T02:12:39;16.08;;;7.05;;
74945;SDS011;63509;45.250;38.102;2024-03-02T02:17:56;21.58;;;7.65;;
74945;SDS011;63509;45.250;38.102;2024-03-02T02:20:23;16.58;;;7.40;;
74945;SDS011;63509;45.250;38.102;2024-03-02T02:22:56;11.68;;;6.65;;
74945;SDS011;63509;45.250;38.102;2024-03-02T02:25:26;20.00;;;5.40;;
74945;SDS011;63509;45.250;38.102;2024-03-02T02:27:53;14.13;;;7.15;;
74945;SDS011;63509;45.250;38.102;2024-03-02T02:30:20;15.88;;;7.25;;
74945;SDS011;63509;45.250;38.102;2024-03-02T02:35:20;12.73;;;5.30;;
74945;SDS011;63509;45.250;38.102;2024-03-02T02:37:47;14.68;;;6.50;;
74945;SDS011;63509;45.250;38.102;2024-03-02T02:40:15;11.75;;;5.28;;
74945;SDS011;63509;45.250;38.102;2024-03-02T02:42:41;15.65;;;6.47;;
74945;SDS011;63509;45.250;38.102;2024-03-02T02:45:07;12.73;;;8.02;;
74945;SDS011;63509;45.250;38.102;2024-03-02T02:47:33;13.27;;;7.07;;
74945;SDS011;63509;45.250;38.102;2024-03-02T02:50:03;21.23;;;6.88;;
74945;SDS011;63509;45.250;38.102;2024-03-02T02:52:33;9.25;;;6.15;;
74945;SDS011;63509;45.250;38.102;2024-03-02T02:55:03;13.25;;;5.78;;
74945;SDS011;63509;45.250;38.102;2024-03-02T02:57:30;13.40;;;7.03;;
74945;SDS011;63509;45.250;38.102;2024-03-02T03:00:01;21.48;;;6.32;;
74945;SDS011;63509;45.250;38.102;2024-03-02T03:02:36;19.45;;;6.85;;
74945;SDS011;63509;45.250;38.102;2024-03-02T03:05:07;10.43;;;5.13;;
74945;SDS011;63509;45.250;38.102;2024-03-02T03:07:39;14.15;;;6.45;;
74945;SDS011;63509;45.250;38.102;2024-03-02T03:10:06;11.63;;;6.55;;
74945;SDS011;63509;45.250;38.102;2024-03-02T03:12:33;17.38;;;7.10;;
74945;SDS011;63509;45.250;38.102;2024-03-02T03:15:00;12.50;;;6.60;;
74945;SDS011;63509;45.250;38.102;2024-03-02T03:17:26;22.42;;;7.85;;
74945;SDS011;63509;45.250;38.102;2024-03-02T03:19:53;19.98;;;8.23;;
74945;SDS011;63509;45.250;38.102;2024-03-02T03:22:20;13.05;;;7.05;;
74945;SDS011;63509;45.250;38.102;2024-03-02T03:24:46;24.40;;;8.93;;
74945;SDS011;63509;45.250;38.102;2024-03-02T03:27:12;17.77;;;7.20;;
74945;SDS011;63509;45.250;38.102;2024-03-02T03:29:38;12.93;;;7.78;;
74945;SDS011;63509;45.250;38.102;2024-03-02T03:32:04;24.23;;;7.82;;
74945;SDS011;63509;45.250;38.102;2024-03-02T03:34:32;16.80;;;8.27;;
74945;SDS011;63509;45.250;38.102;2024-03-02T03:36:59;16.92;;;7.50;;
74945;SDS011;63509;45.250;38.102;2024-03-02T03:39:25;14.10;;;6.43;;
74945;SDS011;63509;45.250;38.102;2024-03-02T03:41:51;13.32;;;6.70;;
74945;SDS011;63509;45.250;38.102;2024-03-02T03:44:17;13.15;;;5.97;;
74945;SDS011;63509;45.250;38.102;2024-03-02T03:46:43;14.45;;;5.70;;
74945;SDS011;63509;45.250;38.102;2024-03-02T03:49:09;11.70;;;7.22;;
74945;SDS011;63509;45.250;38.102;2024-03-02T03:51:35;13.02;;;6.32;;
74945;SDS011;63509;45.250;38.102;2024-03-02T03:54:01;15.95;;;5.88;;
74945;SDS011;63509;45.250;38.102;2024-03-02T03:56:28;13.57;;;7.32;;
74945;SDS011;63509;45.250;38.102;2024-03-02T03:58:54;13.93;;;7.07;;
74945;SDS011;63509;45.250;38.102;2024-03-02T04:01:25;10.95;;;5.68;;
74945;SDS011;63509;45.250;38.102;2024-03-02T04:03:51;14.15;;;5.72;;
74945;SDS011;63509;45.250;38.102;2024-03-02T04:06:17;13.80;;;8.15;;
74945;SDS011;63509;45.250;38.102;2024-03-02T04:08:43;16.38;;;7.63;;
74945;SDS011;63509;45.250;38.102;2024-03-02T04:11:09;28.70;;;7.22;;
74945;SDS011;63509;45.250;38.102;2024-03-02T04:13:36;13.70;;;6.43;;
74945;SDS011;63509;45.250;38.102;2024-03-02T04:16:02;12.10;;;5.47;;
74945;SDS011;63509;45.250;38.102;2024-03-02T04:18:30;13.80;;;7.13;;
74945;SDS011;63509;45.250;38.102;2024-03-02T04:20:57;9.68;;;6.03;;
74945;SDS011;63509;45.250;38.102;2024-03-02T04:23:26;11.23;;;6.22;;
74945;SDS011;63509;45.250;38.102;2024-03-02T04:25:53;13.32;;;8.23;;
74945;SDS011;63509;45.250;38.102;2024-03-02T04:28:19;18.10;;;6.97;;
74945;SDS011;63509;45.250;38.102;2024-03-02T04:30:45;21.95;;;7.20;;
74945;SDS011;63509;45.250;38.102;2024-03-02T04:33:11;11.13;;;7.38;;
74945;SDS011;63509;45.250;38.102;2024-03-02T04:35:37;13.18;;;6.68;;
74945;SDS011;63509;45.250;38.102;2024-03-02T04:38:04;15.23;;;6.68;;
74945;SDS011;63509;45.250;38.102;2024-03-02T04:40:30;12.77;;;7.00;;
74945;SDS011;63509;45.250;38.102;2024-03-02T04:42:57;15.68;;;7.82;;
74945;SDS011;63509;45.250;38.102;2024-03-02T04:45:24;15.93;;;6.50;;
74945;SDS011;63509;45.250;38.102;2024-03-02T04:47:50;11.98;;;6.03;;
74945;SDS011;63509;45.250;38.102;2024-03-02T04:50:17;12.23;;;7.28;;
74945;SDS011;63509;45.250;38.102;2024-03-02T04:52:45;17.80;;;8.02;;
74945;SDS011;63509;45.250;38.102;2024-03-02T04:55:12;13.43;;;5.97;;
74945;SDS011;63509;45.250;38.102;2024-03-02T04:57:41;13.18;;;6.60;;
74945;SDS011;63509;45.250;38.102;2024-03-02T05:00:08;11.65;;;5.95;;
74945;SDS011;63509;45.250;38.102;2024-03-02T05:02:35;17.55;;;6.45;;
74945;SDS011;63509;45.250;38.102;2024-03-02T05:05:02;14.13;;;6.95;;
74945;SDS011;63509;45.250;38.102;2024-03-02T05:07:28;16.85;;;6.43;;
74945;SDS011;63509;45.250;38.102;2024-03-02T05:09:54;13.00;;;6.22;;
74945;SDS011;63509;45.250;38.102;2024-03-02T05:12:20;11.05;;;6.30;;
74945;SDS011;63509;45.250;38.102;2024-03-02T05:15:05;12.50;;;5.55;;
74945;SDS011;63509;45.250;38.102;2024-03-02T05:17:33;16.42;;;5.97;;
74945;SDS011;63509;45.250;38.102;2024-03-02T05:19:59;13.50;;;6.28;;
74945;SDS011;63509;45.250;38.102;2024-03-02T05:22:25;13.60;;;5.10;;
74945;SDS011;63509;45.250;38.102;2024-03-02T05:24:51;9.27;;;5.32;;
74945;SDS011;63509;45.250;38.102;2024-03-02T05:27:18;14.23;;;6.43;;
74945;SDS011;63509;45.250;38.102;2024-03-02T05:29:44;11.00;;;4.72;;
74945;SDS011;63509;45.250;38.102;2024-03-02T05:32:10;33.10;;;5.90;;
74945;SDS011;63509;45.250;38.102;2024-03-02T05:34:37;21.00;;;4.47;;
74945;SDS011;63509;45.250;38.102;2024-03-02T05:37:03;14.02;;;4.45;;
74945;SDS011;63509;45.250;38.102;2024-03-02T05:39:30;11.65;;;5.18;;
74945;SDS011;63509;45.250;38.102;2024-03-02T05:41:56;14.40;;;4.35;;
74945;SDS011;63509;45.250;38.102;2024-03-02T05:44:23;22.60;;;5.82;;
74945;SDS011;63509;45.250;38.102;2024-03-02T05:46:49;10.07;;;5.00;;
74945;SDS011;63509;45.250;38.102;2024-03-02T05:51:48;21.50;;;6.40;;
74945;SDS011;63509;45.250;38.102;2024-03-02T05:54:15;21.45;;;6.43;;
74945;SDS011;63509;45.250;38.102;2024-03-02T05:56:41;21.75;;;6.32;;
74945;SDS011;63509;45.250;38.102;2024-03-02T05:59:10;13.23;;;5.93;;
74945;SDS011;63509;45.250;38.102;2024-03-02T06:01:43;14.40;;;6.07;;
74945;SDS011;63509;45.250;38.102;2024-03-02T06:04:14;12.73;;;5.57;;
74945;SDS011;63509;45.250;38.102;2024-03-02T06:06:40;13.63;;;4.75;;
74945;SDS011;63509;45.250;38.102;2024-03-02T06:09:07;14.18;;;7.25;;
74945;SDS011;63509;45.250;38.102;2024-03-02T06:11:37;14.63;;;7.75;;
74945;SDS011;63509;45.250;38.102;2024-03-02T06:14:05;13.85;;;5.97;;
74945;SDS011;63509;45.250;38.102;2024-03-02T06:16:32;15.68;;;5.82;;
74945;SDS011;63509;45.250;38.102;2024-03-02T06:19:02;16.77;;;6.93;;
74945;SDS011;63509;45.250;38.102;2024-03-02T06:21:35;17.83;;;7.18;;
74945;SDS011;63509;45.250;38.102;2024-03-02T06:24:02;16.00;;;6.97;;
74945;SDS011;63509;45.250;38.102;2024-03-02T06:26:31;15.13;;;7.57;;
74945;SDS011;63509;45.250;38.102;2024-03-02T06:29:02;18.13;;;6.90;;
74945;SDS011;63509;45.250;38.102;2024-03-02T06:31:30;13.45;;;5.78;;
74945;SDS011;63509;45.250;38.102;2024-03-02T06:33:56;12.18;;;6.40;;
74945;SDS011;63509;45.250;38.102;2024-03-02T06:36:27;15.60;;;6.10;;
74945;SDS011;63509;45.250;38.102;2024-03-02T06:38:57;16.63;;;7.20;;
74945;SDS011;63509;45.250;38.102;2024-03-02T06:41:33;14.18;;;7.15;;
74945;SDS011;63509;45.250;38.102;2024-03-02T06:43:59;15.35;;;7.22;;
74945;SDS011;63509;45.250;38.102;2024-03-02T06:46:27;13.65;;;6.57;;
74945;SDS011;63509;45.250;38.102;2024-03-02T06:48:53;28.33;;;7.47;;
74945;SDS011;63509;45.250;38.102;2024-03-02T06:51:20;19.10;;;7.80;;
74945;SDS011;63509;45.250;38.102;2024-03-02T06:53:49;14.27;;;6.55;;
74945;SDS011;63509;45.250;38.102;2024-03-02T06:56:20;12.30;;;6.95;;
74945;SDS011;63509;45.250;38.102;2024-03-02T06:58:53;25.65;;;8.70;;
74945;SDS011;63509;45.250;38.102;2024-03-02T07:01:19;17.98;;;7.57;;
74945;SDS011;63509;45.250;38.102;2024-03-02T07:03:45;25.67;;;8.05;;
74945;SDS011;63509;45.250;38.102;2024-03-02T07:06:12;14.70;;;6.82;;
74945;SDS011;63509;45.250;38.102;2024-03-02T07:08:38;23.52;;;8.30;;
74945;SDS011;63509;45.250;38.102;2024-03-02T07:11:05;22.60;;;8.45;;
74945;SDS011;63509;45.250;38.102;2024-03-02T07:13:31;25.05;;;7.90;;
74945;SDS011;63509;45.250;38.102;2024-03-02T07:15:58;30.05;;;9.38;;
74945;SDS011;63509;45.250;38.102;2024-03-02T07:18:31;17.52;;;9.20;;
74945;SDS011;63509;45.250;38.102;2024-03-02T07:20:59;24.67;;;7.97;;
74945;SDS011;63509;45.250;38.102;2024-03-02T07:23:26;23.20;;;7.55;;
74945;SDS011;63509;45.250;38.102;2024-03-02T07:25:54;15.18;;;8.32;;
74945;SDS011;63509;45.250;38.102;2024-03-02T07:28:25;17.23;;;7.40;;
74945;SDS011;63509;45.250;38.102;2024-03-02T07:30:58;16.27;;;8.23;;
74945;SDS011;63509;45.250;38.102;2024-03-02T07:33:26;18.50;;;6.72;;
74945;SDS011;63509;45.250;38.102;2024-03-02T07:35:56;22.70;;;7.20;;
74945;SDS011;63509;45.250;38.102;2024-03-02T07:38:25;16.33;;;8.00;;
74945;SDS011;63509;45.250;38.102;2024-03-02T07:40:55;24.23;;;8.63;;
74945;SDS011;63509;45.250;38.102;2024-03-02T07:43:21;24.40;;;8.65;;
74945;SDS011;63509;45.250;38.102;2024-03-02T07:45:52;21.58;;;8.10;;
74945;SDS011;63509;45.250;38.102;2024-03-02T07:48:18;19.10;;;8.65;;
74945;SDS011;63509;45.250;38.102;2024-03-02T07:50:45;19.17;;;8.13;;
74945;SDS011;63509;45.250;38.102;2024-03-02T07:53:11;17.30;;;7.97;;
74945;SDS011;63509;45.250;38.102;2024-03-02T07:55:39;22.20;;;9.18;;
74945;SDS011;63509;45.250;38.102;2024-03-02T07:58:12;21.60;;;8.02;;
74945;SDS011;63509;45.250;38.102;2024-03-02T08:00:40;25.15;;;8.43;;
74945;SDS011;63509;45.250;38.102;2024-03-02T08:03:07;18.50;;;7.82;;
74945;SDS011;63509;45.250;38.102;2024-03-02T08:05:36;14.73;;;7.20;;
74945;SDS011;63509;45.250;38.102;2024-03-02T08:08:04;22.75;;;8.65;;
74945;SDS011;63509;45.250;38.102;2024-03-02T08:10:31;16.88;;;7.18;;
74945;SDS011;63509;45.250;38.102;2024-03-02T08:12:59;21.48;;;8.45;;
74945;SDS011;63509;45.250;38.102;2024-03-02T08:15:25;18.98;;;7.38;;
74945;SDS011;63509;45.250;38.102;2024-03-02T08:17:52;15.98;;;8.10;;
74945;SDS011;63509;45.250;38.102;2024-03-02T08:20:21;18.27;;;7.53;;
74945;SDS011;63509;45.250;38.102;2024-03-02T08:22:51;17.63;;;7.30;;
74945;SDS011;63509;45.250;38.102;2024-03-02T08:25:20;26.13;;;8.55;;
74945;SDS011;63509;45.250;38.102;2024-03-02T08:27:47;20.50;;;7.78;;
74945;SDS011;63509;45.250;38.102;2024-03-02T08:30:19;15.20;;;7.65;;
74945;SDS011;63509;45.250;38.102;2024-03-02T08:32:46;21.45;;;8.27;;
74945;SDS011;63509;45.250;38.102;2024-03-02T08:35:13;17.92;;;7.40;;
74945;SDS011;63509;45.250;38.102;2024-03-02T08:38:12;17.50;;;7.05;;
74945;SDS011;63509;45.250;38.102;2024-03-02T08:40:39;14.63;;;8.18;;
74945;SDS011;63509;45.250;38.102;2024-03-02T08:43:07;18.45;;;7.85;;
74945;SDS011;63509;45.250;38.102;2024-03-02T08:45:34;16.83;;;7.88;;
74945;SDS011;63509;45.250;38.102;2024-03-02T08:48:03;22.70;;;8.43;;
74945;SDS011;63509;45.250;38.102;2024-03-02T08:53:25;15.65;;;7.25;;
74945;SDS011;63509;45.250;38.102;2024-03-02T08:55:52;19.08;;;6.95;;
74945;SDS011;63509;45.250;38.102;2024-03-02T08:58:21;20.15;;;8.18;;
74945;SDS011;63509;45.250;38.102;2024-03-02T09:00:48;17.85;;;6.88;;
74945;SDS011;63509;45.250;38.102;2024-03-02T09:03:14;23.35;;;7.28;;
74945;SDS011;63509;45.250;38.102;2024-03-02T09:05:41;18.15;;;7.43;;
74945;SDS011;63509;45.250;38.102;2024-03-02T09:08:14;12.15;;;6.70;;
74945;SDS011;63509;45.250;38.102;2024-03-02T09:10:43;18.50;;;7.47;;
74945;SDS011;63509;45.250;38.102;2024-03-02T09:13:10;14.82;;;7.47;;
74945;SDS011;63509;45.250;38.102;2024-03-02T09:15:42;16.65;;;7.05;;
74945;SDS011;63509;45.250;38.102;2024-03-02T09:18:09;17.35;;;7.45;;
74945;SDS011;63509;45.250;38.102;2024-03-02T09:20:37;18.83;;;6.78;;
74945;SDS011;63509;45.250;38.102;2024-03-02T09:23:14;16.58;;;7.57;;
74945;SDS011;63509;45.250;38.102;2024-03-02T09:25:51;15.27;;;7.22;;
74945;SDS011;63509;45.250;38.102;2024-03-02T09:28:17;18.58;;;7.57;;
74945;SDS011;63509;45.250;38.102;2024-03-02T09:30:51;19.02;;;7.20;;
74945;SDS011;63509;45.250;38.102;2024-03-02T09:33:22;23.42;;;7.68;;
74945;SDS011;63509;45.250;38.102;2024-03-02T09:36:02;16.55;;;7.55;;
74945;SDS011;63509;45.250;38.102;2024-03-02T09:38:47;20.02;;;7.20;;
74945;SDS011;63509;45.250;38.102;2024-03-02T09:41:14;13.85;;;7.55;;
74945;SDS011;63509;45.250;38.102;2024-03-02T09:43:40;35.92;;;7.97;;
74945;SDS011;63509;45.250;38.102;2024-03-02T09:46:10;28.67;;;8.05;;
74945;SDS011;63509;45.250;38.102;2024-03-02T09:48:41;16.58;;;6.60;;
74945;SDS011;63509;45.250;38.102;2024-03-02T09:51:11;16.50;;;7.57;;
74945;SDS011;63509;45.250;38.102;2024-03-02T09:53:38;23.95;;;6.82;;
74945;SDS011;63509;45.250;38.102;2024-03-02T09:56:05;21.08;;;7.57;;
74945;SDS011;63509;45.250;38.102;2024-03-02T09:58:32;20.33;;;7.57;;
74945;SDS011;63509;45.250;38.102;2024-03-02T10:01:13;15.43;;;6.30;;
74945;SDS011;63509;45.250;38.102;2024-03-02T10:03:54;31.42;;;9.23;;
74945;SDS011;63509;45.250;38.102;2024-03-02T10:06:21;16.45;;;6.82;;
74945;SDS011;63509;45.250;38.102;2024-03-02T10:08:49;22.48;;;8.07;;
74945;SDS011;63509;45.250;38.102;2024-03-02T10:11:29;21.50;;;8.07;;
74945;SDS011;63509;45.250;38.102;2024-03-02T10:14:12;19.50;;;7.32;;
74945;SDS011;63509;45.250;38.102;2024-03-02T10:16:40;24.15;;;10.25;;
74945;SDS011;63509;45.250;38.102;2024-03-02T10:19:17;18.60;;;7.85;;
74945;SDS011;63509;45.250;38.102;2024-03-02T10:21:51;25.75;;;7.45;;
74945;SDS011;63509;45.250;38.102;2024-03-02T10:24:18;18.42;;;7.97;;
74945;SDS011;63509;45.250;38.102;2024-03-02T10:26:46;20.33;;;7.80;;
74945;SDS011;63509;45.250;38.102;2024-03-02T10:29:13;20.33;;;8.18;;
74945;SDS011;63509;45.250;38.102;2024-03-02T10:31:41;19.67;;;9.40;;
74945;SDS011;63509;45.250;38.102;2024-03-02T10:34:09;13.15;;;7.47;;
74945;SDS011;63509;45.250;38.102;2024-03-02T10:36:36;25.10;;;7.68;;
74945;SDS011;63509;45.250;38.102;2024-03-02T10:39:07;18.60;;;8.60;;
74945;SDS011;63509;45.250;38.102;2024-03-02T10:41:35;20.90;;;8.23;;
74945;SDS011;63509;45.250;38.102;2024-03-02T10:46:33;28.17;;;8.07;;
74945;SDS011;63509;45.250;38.102;2024-03-02T10:49:04;16.40;;;8.07;;
74945;SDS011;63509;45.250;38.102;2024-03-02T10:51:32;22.77;;;8.63;;
74945;SDS011;63509;45.250;38.102;2024-03-02T10:53:59;22.05;;;9.15;;
74945;SDS011;63509;45.250;38.102;2024-03-02T10:56:47;17.75;;;8.10;;
74945;SDS011;63509;45.250;38.102;2024-03-02T11:01:46;17.65;;;8.80;;
74945;SDS011;63509;45.250;38.102;2024-03-02T11:04:15;24.45;;;8.85;;
74945;SDS011;63509;45.250;38.102;2024-03-02T11:06:47;22.25;;;8.55;;
74945;SDS011;63509;45.250;38.102;2024-03-02T11:09:14;24.83;;;9.43;;
74945;SDS011;63509;45.250;38.102;2024-03-02T11:11:43;16.40;;;8.43;;
74945;SDS011;63509;45.250;38.102;2024-03-02T11:14:13;33.55;;;9.60;;
74945;SDS011;63509;45.250;38.102;2024-03-02T11:16:42;23.85;;;9.05;;
74945;SDS011;63509;45.250;38.102;2024-03-02T11:19:13;18.52;;;8.73;;
74945;SDS011;63509;45.250;38.102;2024-03-02T11:21:44;21.60;;;8.48;;
74945;SDS011;63509;45.250;38.102;2024-03-02T11:26:47;18.27;;;8.85;;
74945;SDS011;63509;45.250;38.102;2024-03-02T11:32:22;19.45;;;9.32;;
74945;SDS011;63509;45.250;38.102;2024-03-02T11:34:49;17.02;;;7.78;;
74945;SDS011;63509;45.250;38.102;2024-03-02T11:37:16;21.35;;;8.75;;
74945;SDS011;63509;45.250;38.102;2024-03-02T11:39:48;23.98;;;8.63;;
74945;SDS011;63509;45.250;38.102;2024-03-02T11:42:16;13.95;;;8.43;;
74945;SDS011;63509;45.250;38.102;2024-03-02T11:44:45;16.80;;;8.32;;
74945;SDS011;63509;45.250;38.102;2024-03-02T11:47:12;17.30;;;8.95;;
74945;SDS011;63509;45.250;38.102;2024-03-02T11:52:13;30.25;;;9.50;;
74945;SDS011;63509;45.250;38.102;2024-03-02T11:54:41;18.48;;;8.57;;
74945;SDS011;63509;45.250;38.102;2024-03-02T11:57:20;17.20;;;8.77;;
74945;SDS011;63509;45.250;38.102;2024-03-02T11:59:50;15.70;;;7.95;;
74945;SDS011;63509;45.250;38.102;2024-03-02T12:02:21;20.58;;;10.00;;
74945;SDS011;63509;45.250;38.102;2024-03-02T12:04:47;16.48;;;8.60;;
74945;SDS011;63509;45.250;38.102;2024-03-02T12:07:21;15.77;;;7.50;;
74945;SDS011;63509;45.250;38.102;2024-03-02T12:09:49;26.75;;;9.07;;
74945;SDS011;63509;45.250;38.102;2024-03-02T12:12:26;21.75;;;9.65;;
74945;SDS011;63509;45.250;38.102;2024-03-02T12:14:56;12.48;;;6.72;;
74945;SDS011;63509;45.250;38.102;2024-03-02T12:17:22;13.70;;;6.72;;
74945;SDS011;63509;45.250;38.102;2024-03-02T12:19:48;24.75;;;8.68;;
74945;SDS011;63509;45.250;38.102;2024-03-02T12:22:15;16.25;;;7.82;;
74945;SDS011;63509;45.250;38.102;2024-03-02T12:24:41;13.35;;;7.95;;
74945;SDS011;63509;45.250;38.102;2024-03-02T12:27:11;31.48;;;9.35;;
74945;SDS011;63509;45.250;38.102;2024-03-02T12:29:38;29.80;;;7.90;;
74945;SDS011;63509;45.250;38.102;2024-03-02T12:32:04;19.58;;;8.93;;
74945;SDS011;63509;45.250;38.102;2024-03-02T12:34:31;24.80;;;7.38;;
74945;SDS011;63509;45.250;38.102;2024-03-02T12:37:01;13.98;;;6.47;;
74945;SDS011;63509;45.250;38.102;2024-03-02T12:39:28;16.35;;;7.38;;
74945;SDS011;63509;45.250;38.102;2024-03-02T12:41:56;17.85;;;7.47;;
74945;SDS011;63509;45.250;38.102;2024-03-02T12:44:22;14.35;;;6.60;;
74945;SDS011;63509;45.250;38.102;2024-03-02T12:46:48;14.27;;;6.93;;
74945;SDS011;63509;45.250;38.102;2024-03-02T12:49:15;16.17;;;5.82;;
74945;SDS011;63509;45.250;38.102;2024-03-02T12:51:41;12.00;;;6.05;;
74945;SDS011;63509;45.250;38.102;2024-03-02T12:54:08;21.02;;;7.20;;
74945;SDS011;63509;45.250;38.102;2024-03-02T12:56:37;22.80;;;8.77;;
74945;SDS011;63509;45.250;38.102;2024-03-02T12:59:06;30.00;;;9.05;;
74945;SDS011;63509;45.250;38.102;2024-03-02T13:01:36;19.38;;;8.32;;
74945;SDS011;63509;45.250;38.102;2024-03-02T13:04:03;18.27;;;7.85;;
74945;SDS011;63509;45.250;38.102;2024-03-02T13:06:32;36.13;;;11.27;;
74945;SDS011;63509;45.250;38.102;2024-03-02T13:08:59;16.52;;;6.93;;
74945;SDS011;63509;45.250;38.102;2024-03-02T13:11:25;20.13;;;9.68;;
74945;SDS011;63509;45.250;38.102;2024-03-02T13:13:53;21.65;;;9.30;;
74945;SDS011;63509;45.250;38.102;2024-03-02T13:16:26;14.05;;;6.57;;
74945;SDS011;63509;45.250;38.102;2024-03-02T13:18:52;16.73;;;6.15;;
74945;SDS011;63509;45.250;38.102;2024-03-02T13:23:47;10.75;;;5.90;;
74945;SDS011;63509;45.250;38.102;2024-03-02T13:26:13;14.20;;;6.80;;
74945;SDS011;63509;45.250;38.102;2024-03-02T13:28:39;11.20;;;5.47;;
74945;SDS011;63509;45.250;38.102;2024-03-02T13:31:05;11.65;;;5.88;;
74945;SDS011;63509;45.250;38.102;2024-03-02T13:33:35;20.48;;;6.97;;
74945;SDS011;63509;45.250;38.102;2024-03-02T13:36:01;15.10;;;6.22;;
74945;SDS011;63509;45.250;38.102;2024-03-02T13:38:28;14.23;;;5.78;;
74945;SDS011;63509;45.250;38.102;2024-03-02T13:40:54;13.95;;;6.82;;
74945;SDS011;63509;45.250;38.102;2024-03-02T13:43:20;18.58;;;5.68;;
74945;SDS011;63509;45.250;38.102;2024-03-02T13:45:56;12.93;;;6.30;;
74945;SDS011;63509;45.250;38.102;2024-03-02T13:48:23;29.55;;;6.45;;
74945;SDS011;63509;45.250;38.102;2024-03-02T13:50:51;18.20;;;7.47;;
74945;SDS011;63509;45.250;38.102;2024-03-02T13:53:23;19.13;;;6.80;;
74945;SDS011;63509;45.250;38.102;2024-03-02T13:55:50;18.92;;;7.75;;
74945;SDS011;63509;45.250;38.102;2024-03-02T13:58:19;16.98;;;6.85;;
74945;SDS011;63509;45.250;38.102;2024-03-02T14:00:46;25.08;;;7.68;;
74945;SDS011;63509;45.250;38.102;2024-03-02T14:03:13;24.00;;;8.55;;
74945;SDS011;63509;45.250;38.102;2024-03-02T14:05:40;19.30;;;6.50;;
74945;SDS011;63509;45.250;38.102;2024-03-02T14:08:08;18.00;;;8.85;;
74945;SDS011;63509;45.250;38.102;2024-03-02T14:10:35;15.70;;;5.15;;
74945;SDS011;63509;45.250;38.102;2024-03-02T14:13:01;12.63;;;5.63;;
74945;SDS011;63509;45.250;38.102;2024-03-02T14:15:28;9.95;;;5.07;;
74945;SDS011;63509;45.250;38.102;2024-03-02T14:17:55;17.98;;;5.72;;
74945;SDS011;63509;45.250;38.102;2024-03-02T14:20:22;16.90;;;6.40;;
74945;SDS011;63509;45.250;38.102;2024-03-02T14:22:49;10.38;;;4.95;;
74945;SDS011;63509;45.250;38.102;2024-03-02T14:25:15;26.50;;;8.82;;
74945;SDS011;63509;45.250;38.102;2024-03-02T14:27:43;20.52;;;5.65;;
74945;SDS011;63509;45.250;38.102;2024-03-02T14:30:09;24.73;;;6.22;;
74945;SDS011;63509;45.250;38.102;2024-03-02T14:32:36;10.10;;;5.18;;
74945;SDS011;63509;45.250;38.102;2024-03-02T14:35:03;14.75;;;5.45;;
74945;SDS011;63509;45.250;38.102;2024-03-02T14:37:30;27.70;;;5.35;;
74945;SDS011;63509;45.250;38.102;2024-03-02T14:39:56;11.00;;;5.45;;
74945;SDS011;63509;45.250;38.102;2024-03-02T14:42:22;14.02;;;5.35;;
74945;SDS011;63509;45.250;38.102;2024-03-02T14:44:49;18.75;;;5.10;;
74945;SDS011;63509;45.250;38.102;2024-03-02T14:47:16;23.05;;;5.30;;
74945;SDS011;63509;45.250;38.102;2024-03-02T14:49:43;18.10;;;4.97;;
74945;SDS011;63509;45.250;38.102;2024-03-02T14:52:09;11.68;;;5.15;;
74945;SDS011;63509;45.250;38.102;2024-03-02T14:57:33;13.90;;;5.30;;
74945;SDS011;63509;45.250;38.102;2024-03-02T14:59:59;7.47;;;4.60;;